Pacific Guardian — GDTT — position and weather

sailwx.info

Track history (hours):
 
Tides and Currents Weather Stations Pressure Air Temp Water Temp Dewpoint Dewpoint Depression Visibility Wind Speed Wind Dir Waves Ship Positions

Pacific Guardian

Last reported at 2015-Nov-11 18:32 UTC. Time now 2016-Feb-06 23:25 UTC.
Position N 38°01' W 076°13'.
Warning: this ship's position is months out of date.

Length 115 m; beam 18 m; draft 6.3 m.

Type: Other ship. MMSI: 232207000.

Date/timePositionNaut miles runAvg speedWind from/ knotsBaromVisibWave heightAir tempDewpointWater temp
2015-Nov-11 18:32N 38°01' W 076°13'4313.8
2015-Nov-11 15:24N 38°43' W 076°26'1214.6
2015-Nov-11 14:34N 38°56' W 076°24'1413.6
2015-Nov-11 13:33N 39°09' W 076°25'1010.3
2015-Nov-11 12:33N 39°15' W 076°35'1 0.6
2015-Nov-11 11:29N 39°16' W 076°36'0 0.0
2015-Nov-11 10:32N 39°16' W 076°36'0 0.0
2015-Nov-11 09:32N 39°16' W 076°36'0 0.0
2015-Nov-11 08:32N 39°16' W 076°36'0 0.0
2015-Nov-11 07:29N 39°16' W 076°36'0 0.0
2015-Nov-11 06:32N 39°16' W 076°36'0 0.0
2015-Nov-11 05:29N 39°16' W 076°36'0 0.0
2015-Nov-11 04:32N 39°16' W 076°36'0 0.0
2015-Nov-11 03:32N 39°16' W 076°36'0 0.0
2015-Nov-11 02:32N 39°16' W 076°36'0 0.0
2015-Nov-11 01:32N 39°16' W 076°36'0 0.0
2015-Nov-11 00:32N 39°16' W 076°36'0 0.0
2015-Nov-10 23:32N 39°16' W 076°36'0 0.0
2015-Nov-10 22:32N 39°16' W 076°36'0 0.0
2015-Nov-10 21:32N 39°16' W 076°36'0 0.0
2015-Nov-10 20:32N 39°16' W 076°36'0 0.0
2015-Nov-10 19:32N 39°16' W 076°36'0 0.0
2015-Nov-10 18:32N 39°16' W 076°36'0 0.0
2015-Nov-10 17:32N 39°16' W 076°36'0 0.0
2015-Nov-10 16:33N 39°16' W 076°36'3 3.1
2015-Nov-10 15:33N 39°14' W 076°33'1111.4
2015-Nov-10 14:34N 39°09' W 076°20'1212.4
2015-Nov-10 13:33N 39°20' W 076°12'2110.6
2015-Nov-10 11:33N 39°32' W 075°49'8 7.5
2015-Nov-10 10:33N 39°33' W 075°40'6 5.9
2015-Nov-10 09:33N 39°29' W 075°34'1211.7
2015-Nov-10 08:33N 39°20' W 075°25'1212.2
2015-Nov-10 07:33N 39°10' W 075°15'1312.9
2015-Nov-10 06:33N 38°58' W 075°07'1111.3
2015-Nov-10 05:33N 38°48' W 075°02'6 6.3
2015-Nov-10 04:33N 38°48' W 074°54'30 9.9
2015-Nov-10 01:33N 39°02' W 074°20'1412.8
2015-Nov-10 00:27N 39°13' W 074°09'1112.8
2015-Nov-09 23:33N 39°22' W 074°00'9 8.7
2015-Nov-09 22:33N 39°29' W 073°53'0 0.1
2015-Nov-09 21:33N 39°29' W 073°54'0 0.1
2015-Nov-09 20:33N 39°29' W 073°54'0 0.3
2015-Nov-09 19:30N 39°29' W 073°54'0 0.1
2015-Nov-09 18:30N 39°29' W 073°54'0 0.2
2015-Nov-09 17:30N 39°29' W 073°54'0 0.1
2015-Nov-09 16:17N 39°29' W 073°53'0 0.0
2015-Nov-09 15:15N 39°29' W 073°53'0 0.1
2015-Nov-09 14:25N 39°29' W 073°54'0 0.2
2015-Nov-09 13:31N 39°29' W 073°54'0 0.2
2015-Nov-09 12:33N 39°29' W 073°54'0 0.1
2015-Nov-09 11:33N 39°29' W 073°54'0 0.1
2015-Nov-09 10:33N 39°29' W 073°54'0 0.1
2015-Nov-09 09:33N 39°29' W 073°54'0 0.1
2015-Nov-09 08:33N 39°29' W 073°54'0 0.0
2015-Nov-09 07:33N 39°29' W 073°54'0 0.1
2015-Nov-09 06:33N 39°29' W 073°53'0 0.0
2015-Nov-09 05:33N 39°29' W 073°53'0 0.2
2015-Nov-09 04:33N 39°29' W 073°54'0 0.0
2015-Nov-09 03:26N 39°29' W 073°54'0 0.1
2015-Nov-09 02:27N 39°29' W 073°54'0 0.0
2015-Nov-09 00:17N 39°29' W 073°54'0 0.0
2015-Nov-08 23:33N 39°29' W 073°54'0 0.0
2015-Nov-08 22:33N 39°29' W 073°54'0 0.0
2015-Nov-08 21:33N 39°29' W 073°54'0 0.0
2015-Nov-08 20:33N 39°29' W 073°54'0 0.0
2015-Nov-08 19:33N 39°29' W 073°54'0 0.0
2015-Nov-08 18:33N 39°29' W 073°54'0 0.0
2015-Nov-08 17:33N 39°29' W 073°54'0 0.0
2015-Nov-08 15:33N 39°29' W 073°54'0 0.0
2015-Nov-08 14:33N 39°29' W 073°54'0 0.0
2015-Nov-08 13:33N 39°29' W 073°54'0 0.0
2015-Nov-08 12:33N 39°29' W 073°54'0 0.0
2015-Nov-08 11:33N 39°29' W 073°54'0 0.0
2015-Nov-08 10:30N 39°29' W 073°54'0 0.0
2015-Nov-08 09:33N 39°29' W 073°54'0 0.0
2015-Nov-08 08:33N 39°29' W 073°54'0 0.0
2015-Nov-08 07:33N 39°29' W 073°54'0 0.0
2015-Nov-08 06:31N 39°29' W 073°54'0 0.0
2015-Nov-08 05:33N 39°29' W 073°54'0 0.0
2015-Nov-08 02:33N 39°29' W 073°54'0 0.0
2015-Nov-08 01:33N 39°29' W 073°54'0 0.0
2015-Nov-08 00:33N 39°29' W 073°54'0 0.0
2015-Nov-07 23:33N 39°29' W 073°54'0 0.0
2015-Nov-07 22:33N 39°29' W 073°54'0 0.1
2015-Nov-07 21:33N 39°29' W 073°54'0 0.2
2015-Nov-07 20:33N 39°29' W 073°54'0 0.0
2015-Nov-07 19:33N 39°29' W 073°54'0 0.0
2015-Nov-07 18:33N 39°29' W 073°54'0 0.0
2015-Nov-07 17:33N 39°29' W 073°54'0 0.0
2015-Nov-07 16:33N 39°29' W 073°54'0 0.0
2015-Nov-07 15:33N 39°29' W 073°54'0 0.0
2015-Nov-07 14:33N 39°29' W 073°54'0 0.0
2015-Nov-07 13:33N 39°29' W 073°54'0 0.0
2015-Nov-07 12:33N 39°29' W 073°54'0 0.0
2015-Nov-07 11:33N 39°29' W 073°54'0 0.0
2015-Nov-07 10:33N 39°29' W 073°54'0 0.0
2015-Nov-07 09:33N 39°29' W 073°54'0 0.0
2015-Nov-07 08:33N 39°29' W 073°54'0 0.0
2015-Nov-07 07:33N 39°29' W 073°54'0 0.0
2015-Nov-07 06:33N 39°29' W 073°54'0 0.0
2015-Nov-07 05:33N 39°29' W 073°54'0 0.0
2015-Nov-07 04:33N 39°29' W 073°54'0 0.0
2015-Nov-07 03:33N 39°29' W 073°54'0 0.0
2015-Nov-07 02:33N 39°29' W 073°54'0 0.0
2015-Nov-07 01:33N 39°29' W 073°54'0 0.0
2015-Nov-07 00:33N 39°29' W 073°54'0 0.0
2015-Nov-06 23:33N 39°29' W 073°54'0 0.0
2015-Nov-06 22:33N 39°29' W 073°54'0 0.0
2015-Nov-06 21:33N 39°29' W 073°54'0 0.0
2015-Nov-06 20:33N 39°29' W 073°54'0 0.0
2015-Nov-06 19:33N 39°29' W 073°54'0 0.1
2015-Nov-06 18:33N 39°29' W 073°54'0 0.0
2015-Nov-06 17:33N 39°29' W 073°54'0 0.1
2015-Nov-06 16:33N 39°29' W 073°54'0 0.1
2015-Nov-06 15:33N 39°29' W 073°54'0 0.0
2015-Nov-06 14:33N 39°29' W 073°54'0 0.0
2015-Nov-06 13:33N 39°29' W 073°54'0 0.0
2015-Nov-06 12:33N 39°29' W 073°54'0 0.0
2015-Nov-06 11:32N 39°29' W 073°54'0 0.1
2015-Nov-06 10:33N 39°29' W 073°54'0 0.1
2015-Nov-06 09:33N 39°29' W 073°54'0 0.0
2015-Nov-06 08:33N 39°29' W 073°54'0 0.1
2015-Nov-06 07:33N 39°29' W 073°54'0 0.3
2015-Nov-06 06:33N 39°29' W 073°53'0 0.3
2015-Nov-06 05:19N 39°29' W 073°53'2 2.1
2015-Nov-06 04:32N 39°29' W 073°55'0 0.4
2015-Nov-06 03:33N 39°29' W 073°55'5 5.5
2015-Nov-06 02:33N 39°31' W 074°02'2 1.8
2015-Nov-06 01:33N 39°31' W 074°05'3 3.0
2015-Nov-06 00:33N 39°32' W 074°08'0 0.3
2015-Nov-05 23:33N 39°32' W 074°09'0 0.0
2015-Nov-05 22:33N 39°32' W 074°09'0 0.1
2015-Nov-05 21:33N 39°33' W 074°09'0 0.0
2015-Nov-05 20:33N 39°33' W 074°09'2 2.3
2015-Nov-05 19:32N 39°30' W 074°10'4113.2
2015-Nov-05 16:26N 38°52' W 074°27'18 9.5
2015-Nov-05 14:32N 38°46' W 074°49'9 9.4
2015-Nov-05 13:33N 38°46' W 075°01'1110.6
2015-Nov-05 12:33N 38°56' W 075°06'1414.3
2015-Nov-05 11:33N 39°08' W 075°14'1313.2
2015-Nov-05 10:33N 39°19' W 075°24'1211.9
2015-Nov-05 09:33N 39°28' W 075°34'7 6.5
2015-Nov-05 08:33N 39°33' W 075°40'9 8.6
2015-Nov-05 07:33N 39°32' W 075°51'1010.4
2015-Nov-05 06:33N 39°25' W 076°01'1313.3
2015-Nov-05 05:33N 39°16' W 076°14'10 9.7
2015-Nov-05 04:34N 39°10' W 076°24'1010.4
2015-Nov-05 03:33N 39°15' W 076°35'1 0.7
2015-Nov-05 02:33N 39°16' W 076°36'0 0.0
2015-Nov-05 01:33N 39°16' W 076°36'0 0.0
2015-Nov-05 00:33N 39°16' W 076°36'0 0.0
2015-Nov-04 23:33N 39°16' W 076°36'0 0.0
2015-Nov-04 22:33N 39°16' W 076°36'0 0.0
2015-Nov-04 21:33N 39°16' W 076°36'0 0.0
2015-Nov-04 20:33N 39°16' W 076°36'0 0.0
2015-Nov-04 19:33N 39°16' W 076°36'0 0.0
2015-Nov-04 18:33N 39°16' W 076°36'0 0.0
2015-Nov-04 17:33N 39°16' W 076°36'0 0.0
2015-Nov-04 16:33N 39°16' W 076°36'0 0.0
2015-Nov-04 15:33N 39°16' W 076°36'0 0.0
2015-Nov-04 14:33N 39°16' W 076°36'0 0.0
2015-Nov-04 13:33N 39°16' W 076°36'0 0.1
2015-Nov-04 12:33N 39°16' W 076°36'6 5.5
2015-Nov-04 11:33N 39°12' W 076°30'1111.4
2015-Nov-04 10:33N 39°02' W 076°23'1212.3
2015-Nov-04 09:33N 38°50' W 076°25'1312.8
2015-Nov-04 08:33N 38°37' W 076°26'1412.7
2015-Nov-04 07:28N 38°24' W 076°22'1212.8
2015-Nov-04 06:32N 38°13' W 076°16'1412.9
2015-Nov-04 05:29N 37°60' W 076°12'3612.1
2015-Nov-04 02:29N 37°24' W 076°06'1312.4
2015-Nov-04 01:28N 37°12' W 076°09'3410.4
2015-Nov-03 22:13N 36°47' W 075°40'  
Track history (hours):
 
Tides and Currents Weather Stations Pressure Air Temp Water Temp Dewpoint Dewpoint Depression Visibility Wind Speed Wind Dir Waves Ship Positions

Pacific Guardian

Last reported at 2015-Nov-11 18:32 UTC. Time now 2016-Feb-06 23:25 UTC.
Position N 38°01' W 076°13'.
Warning: this ship's position is months out of date.

Length 115 m; beam 18 m; draft 6.3 m.

Type: Other ship. MMSI: 232207000.

Date/timePositionNaut miles runAvg speedWind from/ knotsBaromVisibWave heightAir tempDewpointWater temp
2015-Nov-11 18:32N 38°01' W 076°13'4313.8
2015-Nov-11 15:24N 38°43' W 076°26'1214.6
2015-Nov-11 14:34N 38°56' W 076°24'1413.6
2015-Nov-11 13:33N 39°09' W 076°25'1010.3
2015-Nov-11 12:33N 39°15' W 076°35'1 0.6
2015-Nov-11 11:29N 39°16' W 076°36'0 0.0
2015-Nov-11 10:32N 39°16' W 076°36'0 0.0
2015-Nov-11 09:32N 39°16' W 076°36'0 0.0
2015-Nov-11 08:32N 39°16' W 076°36'0 0.0
2015-Nov-11 07:29N 39°16' W 076°36'0 0.0
2015-Nov-11 06:32N 39°16' W 076°36'0 0.0
2015-Nov-11 05:29N 39°16' W 076°36'0 0.0
2015-Nov-11 04:32N 39°16' W 076°36'0 0.0
2015-Nov-11 03:32N 39°16' W 076°36'0 0.0
2015-Nov-11 02:32N 39°16' W 076°36'0 0.0
2015-Nov-11 01:32N 39°16' W 076°36'0 0.0
2015-Nov-11 00:32N 39°16' W 076°36'0 0.0
2015-Nov-10 23:32N 39°16' W 076°36'0 0.0
2015-Nov-10 22:32N 39°16' W 076°36'0 0.0
2015-Nov-10 21:32N 39°16' W 076°36'0 0.0
2015-Nov-10 20:32N 39°16' W 076°36'0 0.0
2015-Nov-10 19:32N 39°16' W 076°36'0 0.0
2015-Nov-10 18:32N 39°16' W 076°36'0 0.0
2015-Nov-10 17:32N 39°16' W 076°36'0 0.0
2015-Nov-10 16:33N 39°16' W 076°36'3 3.1
2015-Nov-10 15:33N 39°14' W 076°33'1111.4
2015-Nov-10 14:34N 39°09' W 076°20'1212.4
2015-Nov-10 13:33N 39°20' W 076°12'2110.6
2015-Nov-10 11:33N 39°32' W 075°49'8 7.5
2015-Nov-10 10:33N 39°33' W 075°40'6 5.9
2015-Nov-10 09:33N 39°29' W 075°34'1211.7
2015-Nov-10 08:33N 39°20' W 075°25'1212.2
2015-Nov-10 07:33N 39°10' W 075°15'1312.9
2015-Nov-10 06:33N 38°58' W 075°07'1111.3
2015-Nov-10 05:33N 38°48' W 075°02'6 6.3
2015-Nov-10 04:33N 38°48' W 074°54'30 9.9
2015-Nov-10 01:33N 39°02' W 074°20'1412.8
2015-Nov-10 00:27N 39°13' W 074°09'1112.8
2015-Nov-09 23:33N 39°22' W 074°00'9 8.7
2015-Nov-09 22:33N 39°29' W 073°53'0 0.1
2015-Nov-09 21:33N 39°29' W 073°54'0 0.1
2015-Nov-09 20:33N 39°29' W 073°54'0 0.3
2015-Nov-09 19:30N 39°29' W 073°54'0 0.1
2015-Nov-09 18:30N 39°29' W 073°54'0 0.2
2015-Nov-09 17:30N 39°29' W 073°54'0 0.1
2015-Nov-09 16:17N 39°29' W 073°53'0 0.0
2015-Nov-09 15:15N 39°29' W 073°53'0 0.1
2015-Nov-09 14:25N 39°29' W 073°54'0 0.2
2015-Nov-09 13:31N 39°29' W 073°54'0 0.2
2015-Nov-09 12:33N 39°29' W 073°54'0 0.1
2015-Nov-09 11:33N 39°29' W 073°54'0 0.1
2015-Nov-09 10:33N 39°29' W 073°54'0 0.1
2015-Nov-09 09:33N 39°29' W 073°54'0 0.1
2015-Nov-09 08:33N 39°29' W 073°54'0 0.0
2015-Nov-09 07:33N 39°29' W 073°54'0 0.1
2015-Nov-09 06:33N 39°29' W 073°53'0 0.0
2015-Nov-09 05:33N 39°29' W 073°53'0 0.2
2015-Nov-09 04:33N 39°29' W 073°54'0 0.0
2015-Nov-09 03:26N 39°29' W 073°54'0 0.1
2015-Nov-09 02:27N 39°29' W 073°54'0 0.0
2015-Nov-09 00:17N 39°29' W 073°54'0 0.0
2015-Nov-08 23:33N 39°29' W 073°54'0 0.0
2015-Nov-08 22:33N 39°29' W 073°54'0 0.0
2015-Nov-08 21:33N 39°29' W 073°54'0 0.0
2015-Nov-08 20:33N 39°29' W 073°54'0 0.0
2015-Nov-08 19:33N 39°29' W 073°54'0 0.0
2015-Nov-08 18:33N 39°29' W 073°54'0 0.0
2015-Nov-08 17:33N 39°29' W 073°54'0 0.0
2015-Nov-08 15:33N 39°29' W 073°54'0 0.0
2015-Nov-08 14:33N 39°29' W 073°54'0 0.0
2015-Nov-08 13:33N 39°29' W 073°54'0 0.0
2015-Nov-08 12:33N 39°29' W 073°54'0 0.0
2015-Nov-08 11:33N 39°29' W 073°54'0 0.0
2015-Nov-08 10:30N 39°29' W 073°54'0 0.0
2015-Nov-08 09:33N 39°29' W 073°54'0 0.0
2015-Nov-08 08:33N 39°29' W 073°54'0 0.0
2015-Nov-08 07:33N 39°29' W 073°54'0 0.0
2015-Nov-08 06:31N 39°29' W 073°54'0 0.0
2015-Nov-08 05:33N 39°29' W 073°54'0 0.0
2015-Nov-08 02:33N 39°29' W 073°54'0 0.0
2015-Nov-08 01:33N 39°29' W 073°54'0 0.0
2015-Nov-08 00:33N 39°29' W 073°54'0 0.0
2015-Nov-07 23:33N 39°29' W 073°54'0 0.0
2015-Nov-07 22:33N 39°29' W 073°54'0 0.1
2015-Nov-07 21:33N 39°29' W 073°54'0 0.2
2015-Nov-07 20:33N 39°29' W 073°54'0 0.0
2015-Nov-07 19:33N 39°29' W 073°54'0 0.0
2015-Nov-07 18:33N 39°29' W 073°54'0 0.0
2015-Nov-07 17:33N 39°29' W 073°54'0 0.0
2015-Nov-07 16:33N 39°29' W 073°54'0 0.0
2015-Nov-07 15:33N 39°29' W 073°54'0 0.0
2015-Nov-07 14:33N 39°29' W 073°54'0 0.0
2015-Nov-07 13:33N 39°29' W 073°54'0 0.0
2015-Nov-07 12:33N 39°29' W 073°54'0 0.0
2015-Nov-07 11:33N 39°29' W 073°54'0 0.0
2015-Nov-07 10:33N 39°29' W 073°54'0 0.0
2015-Nov-07 09:33N 39°29' W 073°54'0 0.0
2015-Nov-07 08:33N 39°29' W 073°54'0 0.0
2015-Nov-07 07:33N 39°29' W 073°54'0 0.0
2015-Nov-07 06:33N 39°29' W 073°54'0 0.0
2015-Nov-07 05:33N 39°29' W 073°54'0 0.0
2015-Nov-07 04:33N 39°29' W 073°54'0 0.0
2015-Nov-07 03:33N 39°29' W 073°54'0 0.0
2015-Nov-07 02:33N 39°29' W 073°54'0 0.0
2015-Nov-07 01:33N 39°29' W 073°54'0 0.0
2015-Nov-07 00:33N 39°29' W 073°54'0 0.0
2015-Nov-06 23:33N 39°29' W 073°54'0 0.0
2015-Nov-06 22:33N 39°29' W 073°54'0 0.0
2015-Nov-06 21:33N 39°29' W 073°54'0 0.0
2015-Nov-06 20:33N 39°29' W 073°54'0 0.0
2015-Nov-06 19:33N 39°29' W 073°54'0 0.1
2015-Nov-06 18:33N 39°29' W 073°54'0 0.0
2015-Nov-06 17:33N 39°29' W 073°54'0 0.1
2015-Nov-06 16:33N 39°29' W 073°54'0 0.1
2015-Nov-06 15:33N 39°29' W 073°54'0 0.0
2015-Nov-06 14:33N 39°29' W 073°54'0 0.0
2015-Nov-06 13:33N 39°29' W 073°54'0 0.0
2015-Nov-06 12:33N 39°29' W 073°54'0 0.0
2015-Nov-06 11:32N 39°29' W 073°54'0 0.1
2015-Nov-06 10:33N 39°29' W 073°54'0 0.1
2015-Nov-06 09:33N 39°29' W 073°54'0 0.0
2015-Nov-06 08:33N 39°29' W 073°54'0 0.1
2015-Nov-06 07:33N 39°29' W 073°54'0 0.3
2015-Nov-06 06:33N 39°29' W 073°53'0 0.3
2015-Nov-06 05:19N 39°29' W 073°53'2 2.1
2015-Nov-06 04:32N 39°29' W 073°55'0 0.4
2015-Nov-06 03:33N 39°29' W 073°55'5 5.5
2015-Nov-06 02:33N 39°31' W 074°02'2 1.8
2015-Nov-06 01:33N 39°31' W 074°05'3 3.0
2015-Nov-06 00:33N 39°32' W 074°08'0 0.3
2015-Nov-05 23:33N 39°32' W 074°09'0 0.0
2015-Nov-05 22:33N 39°32' W 074°09'0 0.1
2015-Nov-05 21:33N 39°33' W 074°09'0 0.0
2015-Nov-05 20:33N 39°33' W 074°09'2 2.3
2015-Nov-05 19:32N 39°30' W 074°10'4113.2
2015-Nov-05 16:26N 38°52' W 074°27'18 9.5
2015-Nov-05 14:32N 38°46' W 074°49'9 9.4
2015-Nov-05 13:33N 38°46' W 075°01'1110.6
2015-Nov-05 12:33N 38°56' W 075°06'1414.3
2015-Nov-05 11:33N 39°08' W 075°14'1313.2
2015-Nov-05 10:33N 39°19' W 075°24'1211.9
2015-Nov-05 09:33N 39°28' W 075°34'7 6.5
2015-Nov-05 08:33N 39°33' W 075°40'9 8.6
2015-Nov-05 07:33N 39°32' W 075°51'1010.4
2015-Nov-05 06:33N 39°25' W 076°01'1313.3
2015-Nov-05 05:33N 39°16' W 076°14'10 9.7
2015-Nov-05 04:34N 39°10' W 076°24'1010.4
2015-Nov-05 03:33N 39°15' W 076°35'1 0.7
2015-Nov-05 02:33N 39°16' W 076°36'0 0.0
2015-Nov-05 01:33N 39°16' W 076°36'0 0.0
2015-Nov-05 00:33N 39°16' W 076°36'0 0.0
2015-Nov-04 23:33N 39°16' W 076°36'0 0.0
2015-Nov-04 22:33N 39°16' W 076°36'0 0.0
2015-Nov-04 21:33N 39°16' W 076°36'0 0.0
2015-Nov-04 20:33N 39°16' W 076°36'0 0.0
2015-Nov-04 19:33N 39°16' W 076°36'0 0.0
2015-Nov-04 18:33N 39°16' W 076°36'0 0.0
2015-Nov-04 17:33N 39°16' W 076°36'0 0.0
2015-Nov-04 16:33N 39°16' W 076°36'0 0.0
2015-Nov-04 15:33N 39°16' W 076°36'0 0.0
2015-Nov-04 14:33N 39°16' W 076°36'0 0.0
2015-Nov-04 13:33N 39°16' W 076°36'0 0.1
2015-Nov-04 12:33N 39°16' W 076°36'6 5.5
2015-Nov-04 11:33N 39°12' W 076°30'1111.4
2015-Nov-04 10:33N 39°02' W 076°23'1212.3
2015-Nov-04 09:33N 38°50' W 076°25'1312.8
2015-Nov-04 08:33N 38°37' W 076°26'1412.7
2015-Nov-04 07:28N 38°24' W 076°22'1212.8
2015-Nov-04 06:32N 38°13' W 076°16'1412.9
2015-Nov-04 05:29N 37°60' W 076°12'3612.1
2015-Nov-04 02:29N 37°24' W 076°06'1312.4
2015-Nov-04 01:28N 37°12' W 076°09'3410.4
2015-Nov-03 22:13N 36°47' W 075°40'  

Dump ship's entire track history